createdAt,value
2022-08-18T00:39:43.651Z,18.2
2022-08-18T00:41:41.510Z,18.2
2022-08-18T00:43:41.524Z,18.2
2022-08-18T00:45:41.533Z,18.2
2022-08-18T00:47:05.283Z,18.2
2022-08-18T00:49:05.282Z,18.1
2022-08-18T00:51:05.284Z,18.1
2022-08-18T00:51:35.447Z,18.2
2022-08-18T00:53:02.019Z,18.1
2022-08-18T00:55:02.011Z,18.1
2022-08-18T00:55:44.337Z,18.1
2022-08-18T00:57:44.284Z,18.1
2022-08-18T00:59:44.241Z,18.1
2022-08-18T01:00:02.512Z,18.1
2022-08-18T01:02:02.567Z,18.2
2022-08-18T01:04:02.526Z,18.2
2022-08-18T01:06:02.544Z,18.3
2022-08-18T01:08:02.530Z,18.3
2022-08-18T01:10:02.530Z,18.3
2022-08-18T01:12:27.235Z,18.3
2022-08-18T01:14:15.540Z,18.4
2022-08-18T01:16:15.540Z,18.4
2022-08-18T01:18:15.543Z,18.4
2022-08-18T01:20:15.548Z,18.4
2022-08-18T01:22:22.404Z,18.5
2022-08-18T01:24:22.400Z,18.5
2022-08-18T01:26:22.404Z,18.5
2022-08-18T01:28:22.409Z,18.5
2022-08-18T01:30:22.401Z,18.6
2022-08-18T01:31:35.017Z,18.6
2022-08-18T01:33:35.001Z,18.6
2022-08-18T01:35:36.214Z,18.7
2022-08-18T01:37:35.016Z,18.7
2022-08-18T01:41:00.118Z,18.7
2022-08-18T01:41:35.076Z,18.8
2022-08-18T01:43:35.030Z,18.8
2022-08-18T01:45:35.035Z,18.8
2022-08-18T01:47:47.047Z,18.8
2022-08-18T01:49:35.049Z,18.8
2022-08-18T01:51:38.093Z,18.8
2022-08-18T01:53:35.070Z,18.7
2022-08-18T01:55:35.064Z,18.6
2022-08-18T01:57:35.067Z,18.7
2022-08-18T01:59:35.073Z,18.6
2022-08-18T02:01:36.401Z,18.6
2022-08-18T02:03:35.085Z,18.5
2022-08-18T02:05:35.088Z,18.5
2022-08-18T02:07:36.346Z,18.5
2022-08-18T02:09:35.109Z,18.4
2022-08-18T02:11:35.106Z,18.4
2022-08-18T02:13:35.111Z,18.4
2022-08-18T02:15:35.105Z,18.4
2022-08-18T02:17:35.111Z,18.3
2022-08-18T02:19:35.112Z,18.2
2022-08-18T02:21:35.121Z,18.2
2022-08-18T02:23:35.125Z,18.2
2022-08-18T02:25:35.126Z,18.2
2022-08-18T02:27:35.129Z,18.1
2022-08-18T02:29:35.128Z,18.2
2022-08-18T02:31:35.133Z,18.1
2022-08-18T02:33:35.138Z,18.1
2022-08-18T02:35:35.147Z,18.1
2022-08-18T02:37:35.158Z,18.1
2022-08-18T02:39:35.238Z,18.1
2022-08-18T02:41:35.160Z,18.1
2022-08-18T02:43:37.779Z,18.1
2022-08-18T02:45:35.176Z,18
2022-08-18T02:47:35.174Z,18
2022-08-18T02:49:35.181Z,18
2022-08-18T02:51:35.174Z,18
2022-08-18T02:53:35.191Z,18
2022-08-18T02:55:35.209Z,18
2022-08-18T02:57:35.217Z,18
2022-08-18T02:59:35.229Z,18
2022-08-18T03:01:35.273Z,18
2022-08-18T03:03:35.236Z,18
2022-08-18T03:05:35.246Z,18
2022-08-18T03:07:35.255Z,18
2022-08-18T03:09:35.257Z,18
2022-08-18T03:11:35.262Z,18
2022-08-18T03:13:35.260Z,17.9
2022-08-18T03:15:35.265Z,17.9
2022-08-18T03:17:35.268Z,17.9
2022-08-18T03:19:35.277Z,17.8
2022-08-18T03:21:35.297Z,17.9
2022-08-18T03:23:35.287Z,17.9
2022-08-18T03:25:35.290Z,17.9
2022-08-18T03:27:35.294Z,17.9
2022-08-18T03:29:35.294Z,17.9
2022-08-18T03:31:35.305Z,17.9
2022-08-18T03:33:35.306Z,17.9
2022-08-18T03:35:35.313Z,17.8
2022-08-18T03:37:35.323Z,17.9
2022-08-18T03:39:35.375Z,17.9
2022-08-18T03:41:43.531Z,17.8
2022-08-18T03:43:50.468Z,17.9
2022-08-18T03:45:35.347Z,17.8
2022-08-18T03:47:35.362Z,17.8
2022-08-18T03:49:35.382Z,17.9
2022-08-18T03:51:35.378Z,17.8
2022-08-18T03:53:35.390Z,17.9
2022-08-18T03:55:35.393Z,17.8
2022-08-18T03:57:38.982Z,17.9
2022-08-18T03:59:35.402Z,17.9
2022-08-18T04:01:35.419Z,17.8
2022-08-18T04:03:35.415Z,17.8
2022-08-18T04:05:35.423Z,17.8
2022-08-18T04:07:35.422Z,17.8
2022-08-18T04:09:35.422Z,17.8
2022-08-18T04:11:35.928Z,17.7
2022-08-18T04:13:35.423Z,17.8
2022-08-18T04:15:35.432Z,17.7
2022-08-18T04:17:35.443Z,17.7
2022-08-18T04:19:35.442Z,17.7
2022-08-18T04:21:35.441Z,17.7
2022-08-18T04:23:39.431Z,17.7
2022-08-18T04:25:35.448Z,17.7
2022-08-18T04:27:35.461Z,17.7
2022-08-18T04:29:35.461Z,17.7
2022-08-18T04:31:35.466Z,17.7
2022-08-18T04:33:35.469Z,17.7
2022-08-18T04:35:35.470Z,17.7
2022-08-18T04:37:37.902Z,17.7
2022-08-18T04:39:35.541Z,17.7
2022-08-18T04:41:35.491Z,17.7
2022-08-18T04:43:35.510Z,17.7
2022-08-18T04:45:35.519Z,17.7
2022-08-18T04:47:35.528Z,17.7
2022-08-18T04:49:35.533Z,17.7
2022-08-18T04:52:21.862Z,17.8
2022-08-18T04:53:35.545Z,17.8
2022-08-18T04:55:35.555Z,17.8
2022-08-18T04:57:35.561Z,17.8
2022-08-18T04:59:35.565Z,17.9
2022-08-18T05:01:35.636Z,17.9
2022-08-18T05:03:35.577Z,17.9
2022-08-18T05:05:35.583Z,17.9
2022-08-18T05:07:35.577Z,17.9
2022-08-18T05:09:41.061Z,17.9
2022-08-18T05:11:35.575Z,18
2022-08-18T05:13:35.593Z,18
2022-08-18T05:15:52.874Z,18
2022-08-18T05:17:35.598Z,18
2022-08-18T05:19:35.602Z,18
2022-08-18T05:21:35.602Z,18.1
2022-08-18T05:23:35.605Z,18.1
2022-08-18T05:25:35.607Z,18.2
2022-08-18T05:27:35.612Z,18.2
2022-08-18T05:29:35.621Z,18.3
2022-08-18T05:31:35.626Z,18.3
2022-08-18T05:33:35.637Z,18.4
2022-08-18T05:35:35.650Z,18.4
2022-08-18T05:37:35.959Z,18.5
2022-08-18T05:39:35.772Z,18.6
2022-08-18T05:41:35.680Z,18.6
2022-08-18T05:43:35.691Z,18.7
2022-08-18T05:45:35.695Z,18.7
2022-08-18T05:47:35.703Z,18.8
2022-08-18T05:49:35.710Z,18.8
2022-08-18T05:51:35.706Z,18.9
2022-08-18T05:53:35.720Z,19
2022-08-18T05:55:35.734Z,19
2022-08-18T05:57:35.738Z,19.1
2022-08-18T05:59:35.743Z,19.2
2022-08-18T06:01:35.745Z,19.3
2022-08-18T06:03:44.928Z,19.4
2022-08-18T06:05:35.750Z,19.6
2022-08-18T06:07:35.759Z,19.7
2022-08-18T06:09:35.763Z,19.8
2022-08-18T06:11:35.773Z,19.9
2022-08-18T06:13:35.786Z,20.1
2022-08-18T06:15:35.790Z,20.2
2022-08-18T06:17:35.798Z,20.4
2022-08-18T06:19:35.795Z,20.5
2022-08-18T06:21:39.065Z,20.8
2022-08-18T06:23:35.810Z,21.1
2022-08-18T06:25:35.824Z,21.3
2022-08-18T06:27:35.837Z,21.4
2022-08-18T06:29:35.842Z,21.6
2022-08-18T06:31:35.852Z,21.7
2022-08-18T06:33:35.864Z,21.8
2022-08-18T06:35:35.871Z,21.9
2022-08-18T06:37:35.879Z,22
2022-08-18T06:39:35.963Z,22.2
2022-08-18T06:41:37.754Z,22.5
2022-08-18T06:43:35.901Z,22.6
2022-08-18T06:45:36.495Z,22.7
2022-08-18T06:47:35.917Z,22.8
2022-08-18T06:49:35.920Z,22.9
2022-08-18T06:51:40.205Z,22.9
2022-08-18T06:53:35.938Z,22.9
2022-08-18T06:55:35.957Z,22.9
2022-08-18T06:57:35.957Z,22.9
2022-08-18T06:59:35.954Z,22.9
2022-08-18T07:01:36.029Z,22.9
2022-08-18T07:03:35.961Z,23
2022-08-18T07:05:35.969Z,23.2
2022-08-18T07:07:39.769Z,23.4
2022-08-18T07:09:35.982Z,23.5
2022-08-18T07:11:35.985Z,23.7
2022-08-18T07:13:35.988Z,23.7
2022-08-18T07:15:36.001Z,23.8
2022-08-18T07:17:42.227Z,24
2022-08-18T07:19:36.013Z,24
2022-08-18T07:21:36.020Z,23.9
2022-08-18T07:23:36.030Z,24
2022-08-18T07:25:36.051Z,24.1
2022-08-18T07:27:36.051Z,24.2
2022-08-18T07:29:36.060Z,24.3
2022-08-18T07:31:36.079Z,24.3
2022-08-18T07:33:36.080Z,24.4
2022-08-18T07:35:36.090Z,24.6
2022-08-18T07:37:36.109Z,24.7
2022-08-18T07:39:36.196Z,24.8
2022-08-18T07:41:36.127Z,24.9
2022-08-18T07:43:36.127Z,25.2
2022-08-18T07:45:36.135Z,25.5
2022-08-18T07:47:36.142Z,25.6
2022-08-18T07:49:36.233Z,25.7
2022-08-18T07:51:37.183Z,26
2022-08-18T07:53:36.870Z,26.3
2022-08-18T07:55:36.175Z,26.4
2022-08-18T07:57:42.188Z,26.5
2022-08-18T07:59:36.183Z,26.6
2022-08-18T08:01:36.191Z,26.7
2022-08-18T08:03:36.185Z,26.7
2022-08-18T08:05:36.195Z,26.5
2022-08-18T08:07:36.196Z,26.3
2022-08-18T08:09:36.203Z,26
2022-08-18T08:11:36.215Z,25.7
2022-08-18T08:13:53.858Z,25.6
2022-08-18T08:15:36.214Z,25.6
2022-08-18T08:17:36.233Z,25.7
2022-08-18T08:19:59.314Z,25.8
2022-08-18T08:21:36.235Z,25.9
2022-08-18T08:23:36.244Z,26
2022-08-18T08:25:46.132Z,26
2022-08-18T08:27:36.265Z,26.1
2022-08-18T08:29:36.271Z,26.4
2022-08-18T08:31:37.736Z,26.4
2022-08-18T08:33:36.279Z,26.4
2022-08-18T08:35:48.995Z,26.4
2022-08-18T08:37:36.294Z,26.4
2022-08-18T08:39:36.361Z,26.1
2022-08-18T08:41:36.302Z,25.6
2022-08-18T08:43:36.307Z,25.3
2022-08-18T08:45:36.313Z,25
2022-08-18T08:47:36.327Z,24.7
2022-08-18T08:49:36.344Z,24.4
2022-08-18T08:51:36.335Z,24.3
2022-08-18T08:53:36.338Z,24.4
2022-08-18T08:55:36.346Z,24.7
2022-08-18T08:57:36.351Z,25.1
2022-08-18T08:59:36.356Z,25.3
2022-08-18T09:01:36.395Z,25.2
2022-08-18T09:03:36.372Z,25.1
2022-08-18T09:05:36.377Z,25
2022-08-18T09:07:38.352Z,24.7
2022-08-18T09:09:36.394Z,24.8
2022-08-18T09:11:36.397Z,24.6
2022-08-18T09:13:36.403Z,24.6
2022-08-18T09:15:36.408Z,24.8
2022-08-18T09:17:36.410Z,25
2022-08-18T09:19:36.419Z,25.2
2022-08-18T09:21:36.423Z,25.5
2022-08-18T09:23:36.434Z,25.7
2022-08-18T09:25:36.440Z,25.7
2022-08-18T09:27:48.822Z,25.9
2022-08-18T09:29:36.450Z,26.2
2022-08-18T09:31:36.461Z,26.2
2022-08-18T09:33:36.466Z,26.4
2022-08-18T09:35:36.467Z,26.5
2022-08-18T09:37:36.476Z,26.6
2022-08-18T09:39:36.474Z,26.4
2022-08-18T09:41:36.483Z,26.2
2022-08-18T09:43:36.668Z,26.1
2022-08-18T09:45:36.493Z,26
2022-08-18T09:47:36.496Z,25.8
2022-08-18T09:49:37.969Z,25.6
2022-08-18T09:51:36.516Z,25.6
2022-08-18T09:53:36.519Z,25.4
2022-08-18T09:55:36.521Z,25.4
2022-08-18T09:57:41.326Z,25.5
2022-08-18T09:59:36.537Z,25.5
2022-08-18T10:01:36.697Z,25.6
2022-08-18T10:03:36.543Z,25.5
2022-08-18T10:05:36.558Z,25.3
2022-08-18T10:07:42.048Z,25.1
2022-08-18T10:09:37.358Z,24.9
2022-08-18T10:11:36.564Z,25
2022-08-18T10:15:36.606Z,25
2022-08-18T10:17:36.582Z,25.2
2022-08-18T10:19:39.390Z,25.5
2022-08-18T10:21:36.758Z,25.7
2022-08-18T10:23:38.422Z,25.8
2022-08-18T10:25:36.606Z,25.8
2022-08-18T10:27:36.654Z,25.8
2022-08-18T10:29:36.627Z,25.8
2022-08-18T10:31:36.637Z,25.7
2022-08-18T10:33:36.631Z,25.9
2022-08-18T10:35:36.637Z,26.1
2022-08-18T10:37:36.639Z,26.5
2022-08-18T10:39:39.702Z,26.9
2022-08-18T10:41:36.668Z,27
2022-08-18T10:43:46.408Z,26.8
2022-08-18T10:45:36.658Z,26.7
2022-08-18T10:47:36.663Z,26.7
2022-08-18T10:49:36.765Z,26.6
2022-08-18T10:51:37.804Z,26.7
2022-08-18T10:53:38.736Z,27.1
2022-08-18T10:55:48.477Z,27.4
2022-08-18T10:57:36.700Z,27.6
2022-08-18T11:01:36.709Z,28.2
2022-08-18T11:05:36.717Z,28.6
2022-08-18T11:07:36.725Z,28.8
2022-08-18T11:09:36.907Z,28.9
2022-08-18T11:13:36.734Z,29
2022-08-18T11:15:38.349Z,29.2
2022-08-18T11:17:36.746Z,29.3
2022-08-18T11:19:36.758Z,29.3
2022-08-18T11:21:37.419Z,29.3
2022-08-18T11:23:36.765Z,29.4
2022-08-18T11:25:36.768Z,29.3
2022-08-18T11:27:36.773Z,29.2
2022-08-18T11:29:36.777Z,29.2
2022-08-18T11:31:36.783Z,29.3
2022-08-18T11:35:36.794Z,29.1
2022-08-18T11:37:40.284Z,29.1
2022-08-18T11:39:37.828Z,29
2022-08-18T11:43:39.344Z,28.7
2022-08-18T11:45:36.820Z,28.8
2022-08-18T11:47:36.823Z,28.8
2022-08-18T11:49:36.819Z,28.8
2022-08-18T11:51:36.832Z,28.7
2022-08-18T11:53:36.831Z,28.7
2022-08-18T11:55:36.839Z,28.7
2022-08-18T11:57:36.840Z,28.8
2022-08-18T11:59:54.126Z,28.8
2022-08-18T12:01:41.742Z,28.9
2022-08-18T12:03:36.859Z,28.9
2022-08-18T12:05:45.807Z,29
2022-08-18T12:07:37.183Z,29
2022-08-18T12:10:08.128Z,29
2022-08-18T12:11:36.975Z,28.9
2022-08-18T12:13:36.862Z,28.9
2022-08-18T12:15:44.529Z,28.8
2022-08-18T12:17:36.867Z,28.8
2022-08-18T12:19:36.873Z,28.8
2022-08-18T12:21:36.876Z,28.8
2022-08-18T12:23:38.797Z,28.7
2022-08-18T12:25:36.882Z,28.6
2022-08-18T12:27:36.876Z,28.5
2022-08-18T12:29:42.873Z,28.5
2022-08-18T12:31:42.094Z,28.5
2022-08-18T12:33:48.024Z,28.5
2022-08-18T12:35:36.899Z,28.5
2022-08-18T12:39:36.916Z,28.6
2022-08-18T12:41:37.017Z,28.6
2022-08-18T12:43:36.904Z,28.7
2022-08-18T12:45:37.471Z,28.8
2022-08-18T12:47:38.387Z,28.9
2022-08-18T12:49:36.913Z,29
2022-08-18T12:51:36.910Z,29
2022-08-18T12:53:38.502Z,28.9
2022-08-18T12:57:52.731Z,28.6
2022-08-18T12:59:37.606Z,28.4
2022-08-18T13:01:36.947Z,28.3
2022-08-18T13:03:37.196Z,28.2
2022-08-18T13:05:37.101Z,28.1
2022-08-18T13:07:36.939Z,28
2022-08-18T13:09:43.020Z,28
2022-08-18T13:11:36.946Z,28.2
2022-08-18T13:15:36.972Z,28.5
2022-08-18T13:17:36.977Z,28.5
2022-08-18T13:19:36.985Z,28.7
2022-08-18T13:21:38.958Z,28.9
2022-08-18T13:23:36.992Z,28.9
2022-08-18T13:25:39.261Z,28.8
2022-08-18T13:27:37.454Z,28.8
2022-08-18T13:29:36.992Z,28.8
2022-08-18T13:31:36.997Z,28.8
2022-08-18T13:33:56.034Z,28.8
2022-08-18T13:35:38.585Z,28.8
2022-08-18T13:37:37.000Z,28.7
2022-08-18T13:39:37.018Z,28.7
2022-08-18T13:41:37.006Z,28.6
2022-08-18T13:43:37.835Z,28.5
2022-08-18T13:45:37.051Z,28.5
2022-08-18T13:47:37.996Z,28.4
2022-08-18T13:49:37.005Z,28.3
2022-08-18T13:51:37.003Z,28.3
2022-08-18T13:53:37.813Z,28.1
2022-08-18T13:55:37.006Z,28
2022-08-18T13:57:37.012Z,27.9
2022-08-18T13:59:37.016Z,27.8
2022-08-18T14:01:42.664Z,27.7
2022-08-18T14:03:43.010Z,27.6
2022-08-18T14:05:51.152Z,27.5
2022-08-18T14:07:37.014Z,27.4
2022-08-18T14:09:37.957Z,27.3
2022-08-18T14:11:37.013Z,27.2
2022-08-18T14:13:38.022Z,27.2
2022-08-18T14:15:37.016Z,27.2
2022-08-18T14:17:37.019Z,27.2
2022-08-18T14:19:37.031Z,27.2
2022-08-18T14:21:37.022Z,27.2
2022-08-18T14:23:37.020Z,27.2
2022-08-18T14:25:37.027Z,27.1
2022-08-18T14:27:37.024Z,27
2022-08-18T14:29:45.893Z,26.9
2022-08-18T14:31:37.026Z,26.8
2022-08-18T14:33:51.279Z,26.8
2022-08-18T14:36:04.966Z,26.7
2022-08-18T14:37:37.033Z,26.7
2022-08-18T14:39:37.064Z,26.7
2022-08-18T14:41:37.035Z,26.7
2022-08-18T14:43:50.788Z,26.7
2022-08-18T14:45:37.019Z,26.6
2022-08-18T14:47:37.298Z,26.6
2022-08-18T14:49:43.021Z,26.6
2022-08-18T14:51:37.022Z,26.5
2022-08-18T14:53:37.025Z,26.6
2022-08-18T14:55:37.024Z,26.6
2022-08-18T14:57:37.022Z,26.6
2022-08-18T14:59:37.647Z,26.7
2022-08-18T15:01:42.890Z,26.7
2022-08-18T15:03:37.025Z,26.8
2022-08-18T15:05:37.051Z,26.8
2022-08-18T15:07:37.031Z,26.8
2022-08-18T15:09:37.028Z,26.8
2022-08-18T15:11:37.028Z,26.9
2022-08-18T15:13:37.026Z,26.9
2022-08-18T15:15:42.168Z,27
2022-08-18T15:17:38.049Z,26.9
2022-08-18T15:19:37.889Z,26.9
2022-08-18T15:21:38.654Z,26.8
2022-08-18T15:23:37.033Z,26.9
2022-08-18T15:25:37.118Z,26.9
2022-08-18T15:27:42.280Z,26.9
2022-08-18T15:29:37.039Z,26.9
2022-08-18T15:31:53.813Z,26.9
2022-08-18T15:33:37.041Z,26.9
2022-08-18T15:35:37.046Z,26.9
2022-08-18T15:37:37.042Z,26.9
2022-08-18T15:39:37.122Z,26.8
2022-08-18T15:41:37.731Z,26.7
2022-08-18T15:43:37.049Z,26.6
2022-08-18T15:45:37.049Z,26.6
2022-08-18T15:47:37.046Z,26.6
2022-08-18T15:49:37.053Z,26.6
2022-08-18T15:51:40.970Z,26.5
2022-08-18T15:53:37.057Z,26.5
2022-08-18T15:55:37.531Z,26.4
2022-08-18T15:57:39.278Z,26.3
2022-08-18T15:59:40.051Z,26.3
2022-08-18T16:01:39.623Z,26.3
2022-08-18T16:03:37.068Z,26.2
2022-08-18T16:05:37.065Z,26.2
2022-08-18T16:07:40.099Z,26.2
2022-08-18T16:09:37.072Z,26.1
2022-08-18T16:11:37.071Z,26.1
2022-08-18T16:13:37.077Z,26.1
2022-08-18T16:15:37.101Z,25.9
2022-08-18T16:17:37.077Z,25.8
2022-08-18T16:19:37.076Z,25.7
2022-08-18T16:21:37.074Z,25.6
2022-08-18T16:23:37.078Z,25.6
2022-08-18T16:25:37.076Z,25.6
2022-08-18T16:27:37.082Z,25.6
2022-08-18T16:29:37.085Z,25.6
2022-08-18T16:31:37.089Z,25.6
2022-08-18T16:33:37.083Z,25.6
2022-08-18T16:35:37.087Z,25.6
2022-08-18T16:37:37.085Z,25.5
2022-08-18T16:39:37.158Z,25.5
2022-08-18T16:41:37.093Z,25.3
2022-08-18T16:43:37.091Z,25
2022-08-18T16:45:37.093Z,24.6
2022-08-18T16:47:37.088Z,24.3
2022-08-18T16:49:37.096Z,24
2022-08-18T16:51:37.096Z,23.7
2022-08-18T16:53:39.957Z,23.5
2022-08-18T16:55:37.093Z,23.4
2022-08-18T16:57:53.857Z,23.3
2022-08-18T16:59:37.106Z,23.3
2022-08-18T17:01:48.736Z,23.2
2022-08-18T17:03:37.100Z,23.2
2022-08-18T17:05:37.100Z,23.2
2022-08-18T17:07:37.100Z,23.2
2022-08-18T17:09:37.100Z,23.2
2022-08-18T17:11:37.101Z,23.2
2022-08-18T17:13:37.101Z,23.2
2022-08-18T17:15:37.104Z,23.2
2022-08-18T17:17:37.106Z,23.3
2022-08-18T17:19:37.254Z,23.2
2022-08-18T17:21:37.113Z,23.3
2022-08-18T17:23:38.820Z,23.3
2022-08-18T17:25:37.115Z,23.2
2022-08-18T17:27:37.391Z,23.2
2022-08-18T17:29:37.112Z,23.2
2022-08-18T17:31:37.123Z,23.2
2022-08-18T17:33:37.121Z,23.2
2022-08-18T17:35:37.126Z,23.1
2022-08-18T17:37:37.120Z,23.1
2022-08-18T17:39:37.140Z,23.1
2022-08-18T17:41:37.127Z,23.1
2022-08-18T17:43:37.165Z,23.1
2022-08-18T17:45:37.131Z,23.1
2022-08-18T17:47:37.128Z,23.1
2022-08-18T17:49:39.562Z,23
2022-08-18T17:51:37.141Z,23
2022-08-18T17:53:37.139Z,23
2022-08-18T17:55:37.144Z,23
2022-08-18T17:57:37.147Z,23
2022-08-18T17:59:42.756Z,23
2022-08-18T18:01:37.156Z,23
2022-08-18T18:03:37.156Z,22.9
2022-08-18T18:05:37.152Z,23
2022-08-18T18:07:38.410Z,22.9
2022-08-18T18:09:37.151Z,22.9
2022-08-18T18:11:37.151Z,22.9
2022-08-18T18:13:37.157Z,22.9
2022-08-18T18:15:37.156Z,22.9
2022-08-18T18:17:37.167Z,22.9
2022-08-18T18:19:37.157Z,22.9
2022-08-18T18:21:53.256Z,22.9
2022-08-18T18:23:37.169Z,22.8
2022-08-18T18:25:37.161Z,22.8
2022-08-18T18:27:37.172Z,22.7
2022-08-18T18:29:38.376Z,22.5
2022-08-18T18:31:37.166Z,22.3
2022-08-18T18:33:37.168Z,22.1
2022-08-18T18:35:37.169Z,21.9
2022-08-18T18:37:37.171Z,21.8
2022-08-18T18:39:37.203Z,21.6
2022-08-18T18:41:39.931Z,21.4
2022-08-18T18:43:37.177Z,21.3
2022-08-18T18:45:37.180Z,21.2
2022-08-18T18:47:37.182Z,21.1
2022-08-18T18:49:37.180Z,21
2022-08-18T18:51:38.075Z,21
2022-08-18T18:53:37.178Z,20.9
2022-08-18T18:55:37.391Z,20.9
2022-08-18T18:57:37.188Z,20.9
2022-08-18T18:59:38.510Z,20.8
2022-08-18T19:01:37.308Z,20.8
2022-08-18T19:03:37.195Z,20.8
2022-08-18T19:05:37.193Z,20.8
2022-08-18T19:07:37.192Z,20.8
2022-08-18T19:09:37.201Z,20.7
2022-08-18T19:11:37.194Z,20.7
2022-08-18T19:13:37.191Z,20.7
2022-08-18T19:15:38.498Z,20.7
2022-08-18T19:17:37.200Z,20.7
2022-08-18T19:19:39.190Z,20.7
2022-08-18T19:22:02.755Z,20.7
2022-08-18T19:23:44.733Z,20.7
2022-08-18T19:25:37.206Z,20.7
2022-08-18T19:27:37.207Z,20.7
2022-08-18T19:29:37.206Z,20.7
2022-08-18T19:31:37.204Z,20.7
2022-08-18T19:33:37.216Z,20.7
2022-08-18T19:35:37.793Z,20.7
2022-08-18T19:37:38.254Z,20.7
2022-08-18T19:39:37.286Z,20.8
2022-08-18T19:41:39.224Z,20.8
2022-08-18T19:43:37.227Z,20.8
2022-08-18T19:45:37.230Z,20.8
2022-08-18T19:47:37.232Z,20.8
2022-08-18T19:49:37.231Z,20.9
2022-08-18T19:51:37.261Z,20.9
2022-08-18T19:53:37.248Z,20.9
2022-08-18T19:55:37.248Z,20.9
2022-08-18T19:57:37.244Z,20.9
2022-08-18T19:59:37.247Z,20.9
2022-08-18T20:01:37.250Z,20.9
2022-08-18T20:03:37.250Z,20.9
2022-08-18T20:05:37.263Z,20.9
2022-08-18T20:07:37.268Z,20.9
2022-08-18T20:09:37.266Z,21
2022-08-18T20:11:41.691Z,21
2022-08-18T20:13:40.260Z,21
2022-08-18T20:15:37.274Z,21
2022-08-18T20:17:37.273Z,21
2022-08-18T20:19:37.284Z,21
2022-08-18T20:21:37.295Z,21
2022-08-18T20:23:37.287Z,21
2022-08-18T20:25:37.282Z,21
2022-08-18T20:27:37.288Z,21
2022-08-18T20:29:37.298Z,21
2022-08-18T20:31:37.302Z,21
2022-08-18T20:33:37.306Z,21
2022-08-18T20:35:37.305Z,21
2022-08-18T20:37:37.306Z,21
2022-08-18T20:39:37.365Z,20.9
2022-08-18T20:41:39.173Z,20.9
2022-08-18T20:43:37.316Z,20.9
2022-08-18T20:45:42.502Z,20.9
2022-08-18T20:47:37.329Z,20.9
2022-08-18T20:49:37.336Z,20.9
2022-08-18T20:51:37.333Z,20.9
2022-08-18T20:53:37.337Z,20.9
2022-08-18T20:55:37.345Z,20.9
2022-08-18T20:57:37.350Z,20.9
2022-08-18T20:59:37.363Z,20.9
2022-08-18T21:01:37.365Z,20.9
2022-08-18T21:03:37.387Z,20.9
2022-08-18T21:05:37.367Z,20.9
2022-08-18T21:07:37.836Z,20.9
2022-08-18T21:09:37.375Z,20.9
2022-08-18T21:11:37.378Z,21
2022-08-18T21:13:37.388Z,21
2022-08-18T21:15:37.392Z,21
2022-08-18T21:17:37.403Z,21
2022-08-18T21:19:37.402Z,21
2022-08-18T21:21:37.406Z,21
2022-08-18T21:23:37.405Z,21
2022-08-18T21:25:37.412Z,21
2022-08-18T21:27:37.407Z,21.1
2022-08-18T21:29:42.263Z,21.1
2022-08-18T21:31:41.948Z,21.1
2022-08-18T21:33:37.423Z,21
2022-08-18T21:35:37.424Z,21
2022-08-18T21:37:37.431Z,21
2022-08-18T21:39:37.448Z,21
2022-08-18T21:41:37.436Z,21
2022-08-18T21:43:37.432Z,20.9
2022-08-18T21:45:37.445Z,20.9
2022-08-18T21:47:37.439Z,20.9
2022-08-18T21:49:37.454Z,20.9
2022-08-18T21:51:37.454Z,20.9
2022-08-18T21:53:37.452Z,21
2022-08-18T21:55:37.455Z,21
2022-08-18T21:57:37.461Z,21
2022-08-18T21:59:37.473Z,21
2022-08-18T22:01:37.472Z,21
2022-08-18T22:03:37.485Z,21
2022-08-18T22:05:55.159Z,21
2022-08-18T22:07:37.496Z,21
2022-08-18T22:09:37.498Z,21
2022-08-18T22:11:38.409Z,21
2022-08-18T22:13:37.499Z,21
2022-08-18T22:15:37.499Z,21
2022-08-18T22:17:37.513Z,21.1
2022-08-18T22:19:37.522Z,21
2022-08-18T22:21:37.524Z,21
2022-08-18T22:23:37.899Z,21
2022-08-18T22:25:37.529Z,21
2022-08-18T22:27:37.535Z,21
2022-08-18T22:29:37.536Z,21
2022-08-18T22:31:37.552Z,21
2022-08-18T22:33:37.540Z,21
2022-08-18T22:35:37.538Z,21
2022-08-18T22:37:37.541Z,20.9
2022-08-18T22:39:37.667Z,20.9
2022-08-18T22:41:37.590Z,20.9
2022-08-18T22:43:37.596Z,20.9
2022-08-18T22:45:37.602Z,20.8
2022-08-18T22:47:43.021Z,20.8
2022-08-18T22:49:37.611Z,20.8
2022-08-18T22:51:37.611Z,20.8
2022-08-18T22:53:37.610Z,20.8
2022-08-18T22:55:37.626Z,20.7
2022-08-18T22:57:37.620Z,20.7
2022-08-18T22:59:37.627Z,20.7
2022-08-18T23:01:37.628Z,20.7
2022-08-18T23:03:41.856Z,20.7
2022-08-18T23:05:37.636Z,20.7
2022-08-18T23:07:37.635Z,20.6
2022-08-18T23:09:37.640Z,20.6
2022-08-18T23:11:37.649Z,20.6
2022-08-18T23:13:37.651Z,20.6
2022-08-18T23:15:37.658Z,20.6
2022-08-18T23:17:37.653Z,20.6
2022-08-18T23:19:37.661Z,20.5
2022-08-18T23:21:37.661Z,20.5
2022-08-18T23:23:37.662Z,20.5
2022-08-18T23:25:37.666Z,20.5
2022-08-18T23:27:37.663Z,20.5
2022-08-18T23:29:37.668Z,20.5
2022-08-18T23:31:37.670Z,20.5
2022-08-18T23:33:37.677Z,20.4
2022-08-18T23:35:37.688Z,20.5
2022-08-18T23:37:37.690Z,20.4
2022-08-18T23:39:37.723Z,20.4
2022-08-18T23:41:37.700Z,20.4
2022-08-18T23:43:37.707Z,20.4
2022-08-18T23:45:37.710Z,20.3
2022-08-18T23:47:37.715Z,20.3
2022-08-18T23:49:37.719Z,20.3
2022-08-18T23:51:37.729Z,20.3
2022-08-18T23:53:37.729Z,20.3
2022-08-18T23:55:37.737Z,20.2
2022-08-18T23:57:37.733Z,20.3
2022-08-18T23:59:37.750Z,20.3
